Dunwoody, Georgia
Current Conditions -  °F | °C
As of 2:53 PM on Tuesday 21 Oct 2014 (Local Time) from KPDK Reporting Station
Clear Clear  
Wind Chill: 23°   Ceiling: Unl
Heat Index: 23°   Visibility: 10mi
Dew Point: 11°   Wind: 13mph
Humidity: 46%   Direction: 310°NW
Pressure: 29.96"   Gusts: 20mph
Location:  33.95°N, 84.33°W
Report Text: KPDK 211853Z 31011G17KT 10SM CLR 23/11 A2996 RMK AO2 SLP139 T02280106
Loading
Personal Weather Stations






























Interactive Weather Map
Tropical Storm Tracking
New forecast layout! Learn more

10-Day Weather Forecast

Advertisements
Track Severe Weather on mobile